Keeseville, NY

10:34 AM EDT on April 25, 2015 (GMT -0400)
Franklin County State | | Change Station
CLOSE
Current Station
Airport
Location: Highgate,
Elevation: 226 ft
Nearby Weather Stations

Elev 226 ft 44.94 °N, 73.10 °W | Updated 19 minutes ago

Overcast
Overcast
36 °F
Feels Like 30 °F
N
7
Wind Variable Wind from WNW

Today
High -- | Low -- °F
--% Chance of Precip.
Yesterday
High -- | Low -- °F
Precip. -- in
5:53 AM 7:50 PM
Waxing Crescent, 46% visible
Pressure 29.81 in
Visibility 10.0 miles
Clouds Mostly Cloudy 2900 ft
Overcast 3500 ft
Windchill 30 °F
Dew Point 25 °F
Humidity 63%
Rainfall 0.00 in
Snow Depth Not available.
UV 2 out of 12
Pollen 7.80 out of 12
Air Quality Not available.
Flu Activity Widespread
METAR KFSO 251415Z AUTO 29006KT 10SM BKN029 OVC035 02/M04 A2981 RMK AO2 T00221041

More Conditions Fewer Conditions

Pressure 29.81 in
Visibility 10.0 miles
Clouds Mostly Cloudy 2900 ft
Overcast 3500 ft
Windchill 30 °F
Dew Point 25 °F
Humidity 63%
Rainfall 0.00 in
Snow Depth Not available.
UV 2 out of 12
Pollen 7.80 out of 12
Air Quality Not available.
Flu Activity Widespread
METAR KFSO 251415Z AUTO 29006KT 10SM BKN029 OVC035 02/M04 A2981 RMK AO2 T00221041

More Conditions Fewer Conditions

10-Day Weather Forecast

Almanac

Astronomy

Apr. 25, 2015 Rise Set
Actual Time
Civil Twilight
Nautical Twilight
Astronomical Twilight
Moon
Length of Visible Light
Length of Day
Tomorrow will be .
, % of the Moon is Illuminated

Today's Extremes

State Highs State Lows

Community

WunderPhotos

Upload Photos

1,816,688 photos uploaded!

WunderBlogs® & News

Nearby

Air Quality

  Air Quality AQ Index Pollutant
Not available.

Snow Depth

Station Depth Elevation

Earthquake Activity

City Distance Mag. Time & Date
Minimum magnitude displayed is 2.5.

Coastal Water Temperatures

Place Temperature

Stations

Nearby Weather Stations

Station Location Temp. Windchill Dew Point Humidity Wind Precip. Elev Updated Type